Sultan Mahmud Badaruddin Ii Airport
WIPP : now visible

Airfield :











YOU CAN JOIN US ON...

 
LOGIN :

Register | Disclaimer

   EN    FR    IT 

 









Legend :    VFR   Marginal VFR   IFR   Intensive IFR   Very Intensive IFR
Visi :
Ceiling :
>= 8 km
>= 3000ft
5 to 8 km
1000 to 3000 ft
1500m to 5 km
500 to 1000 ft
800 to 1500m
200 to 500 ft
< 800m
< 200 ft
Symbols :   Thunderstorms  Fog  Heavy snow  Heavy precipitations  Wind > 20 kt






- Airport Elevation : 49 ft
- IATA code : PLM


WIPP - Sultan Mahmud Badaruddin Ii

CURRENT METAR :
  • 240600Z VRB02KT 9999 FEW010CB SCT010 32/26 Q1007 NOSIG

EXPIRED METARs :
  • 240530Z VRB02KT 9999 FEW010TCU SCT011 32/26 Q1008 NOSIG
  • 240500Z 04003KT 340V070 9999 FEW010TCU SCT010 32/25 Q1008NOSIG
  • 240430Z 07003KT 030V130 9999 BKN010 32/25 Q1008 NOSIG
  • 240400Z VRB02KT 9999 SCT010 32/25 Q1008 NOSIG
  • 240300Z VRB02KT 9999 SCT010 31/25 Q1008 NOSIG
  • 240230Z VRB03KT 9999 SCT010 30/26 Q1009 NOSIG
  • 240200Z 10004KT 040V140 9999 SCT010 29/25 Q1009 NOSIG
  • 240130Z 09003KT 050V140 9000 SCT010 28/26 Q1008 NOSIG

TAF TAF WIPP
Valid from the 24 at 06:00 until the 25 at 06:00 UTC


240500Z 2406/2506 10006KT 9999 SCT010
TEMPO 2410/2414 4000 RA FEW010CB SCT011
TEMPO 2420/2424 5000 BR
WIIF FIR / Asia



MET'MAP, your aeronautical weather chart ! - Copyright ORBIFLY December 2007 - Disclaimer

ORBIFLY MET'MAP TEAM :

Programming & Development : Alexandra Zaïnal
Original concept : Baudouin d'Aumeries
Technical & hardware support : Manuel Goepfert
Assistance : Marc-Olivier Méhu




SOURCES & CREDITS :

   NOAA       Earth
Advisory